Terminal Aerodrome Forecast
Issued by NWS

Home | Current Version | Previous Version | Text Only | Print | Product List | Glossary On
Versions: 1 2 3 4 5 6 7 8 9 10 11 12 13
000
FTUS46 KPDT 202340
TAFALW
TAF
KALW 202340Z 2100/2124 VRB06KT P6SM SCT200 SCT250
     FM210700 14006KT P6SM SCT120 BKN150
     FM211300 23010KT P6SM BKN050 OVC070
     FM211600 26018G25KT P6SM SCT050
     FM211800 24021G29KT P6SM FEW050 FEW300=

USA.gov is the U.S. government's official web portal to all federal, state and local government web resources and services.